Time;durP1;ratioP1;P1;durP2;ratioP2;P2;SDS_P1;SDS_P2;PMS_P1;PMS_P2;Temp;Humidity;BMP_temperature;BMP_pressure;BME280_temperature;BME280_humidity;BME280_pressure;Samples;Min_cycle;Max_cycle;Signal;HPM_P1;HPM_P2
2021/03/10 00:02:39;;;;;;;13.83;12.00;;;;;;;7.37;53.19;97981.72;8320184;28;20209;-82
2021/03/10 00:06:41;;;;;;;17.23;12.73;;;;;;;7.44;53.19;97985.75;8308513;28;20255;-82
2021/03/10 00:10:45;;;;;;;15.03;13.37;;;;;;;7.26;53.43;97978.63;8311696;28;20232;-82
2021/03/10 00:14:48;;;;;;;15.30;12.50;;;;;;;7.12;53.93;97982.47;8312088;28;20209;-82
2021/03/10 00:18:50;;;;;;;14.63;13.13;;;;;;;7.20;54.03;97982.22;8312994;28;20589;-82
2021/03/10 00:22:53;;;;;;;15.07;13.20;;;;;;;7.25;53.86;97990.63;8295436;28;20209;-82
2021/03/10 00:26:55;;;;;;;14.00;12.60;;;;;;;7.36;53.95;97980.84;8311534;28;20570;-81
2021/03/10 00:30:58;;;;;;;16.63;13.97;;;;;;;7.20;54.22;97972.75;8311570;28;20225;-81
2021/03/10 00:35:02;;;;;;;15.20;13.70;;;;;;;7.31;54.29;97974.16;8310881;28;20250;-81
2021/03/10 00:39:04;;;;;;;15.00;13.40;;;;;;;7.32;54.69;97981.00;8311041;28;20545;-81
2021/03/10 00:43:06;;;;;;;15.73;14.13;;;;;;;7.24;54.69;97976.09;8311798;28;20214;-81
2021/03/10 00:47:09;;;;;;;16.77;14.70;;;;;;;7.15;55.53;97969.47;8309837;28;20205;-81
2021/03/10 00:51:12;;;;;;;15.83;14.13;;;;;;;7.16;55.14;97958.28;8310247;28;20673;-81
2021/03/10 00:55:14;;;;;;;15.20;13.70;;;;;;;7.34;55.19;97974.06;8309873;28;20204;-81
2021/03/10 00:59:16;;;;;;;15.80;14.27;;;;;;;7.30;55.26;97981.03;8313583;28;20262;-81
2021/03/10 01:03:19;;;;;;;15.90;13.77;;;;;;;7.25;55.35;97972.59;8342881;28;20207;-81
2021/03/10 01:07:22;;;;;;;16.70;14.70;;;;;;;7.19;55.33;97972.78;8342531;28;20208;-81
2021/03/10 01:11:25;;;;;;;15.53;13.90;;;;;;;7.26;55.12;97978.63;8341779;28;20247;-82
2021/03/10 01:15:26;;;;;;;15.20;13.70;;;;;;;7.28;55.29;97977.66;8341279;28;20184;-82
2021/03/10 01:19:29;;;;;;;16.17;14.30;;;;;;;7.29;55.29;97968.19;8341768;28;20208;-81
2021/03/10 01:23:31;;;;;;;15.30;13.70;;;;;;;7.30;54.86;97965.59;8342674;28;20208;-81
2021/03/10 01:27:33;;;;;;;14.63;13.17;;;;;;;7.30;54.97;97965.59;8342642;28;20208;-82
2021/03/10 01:31:36;;;;;;;16.23;13.30;;;;;;;7.31;55.07;97966.41;8345995;28;20224;-83
2021/03/10 01:35:39;;;;;;;18.27;13.83;;;;;;;7.28;54.59;97966.53;8346418;28;20196;-83
2021/03/10 01:39:42;;;;;;;17.13;14.57;;;;;;;7.28;54.98;97966.53;8344738;28;20209;-84
2021/03/10 01:43:45;;;;;;;15.80;14.03;;;;;;;7.21;55.22;97969.28;8344454;28;20208;-83
2021/03/10 01:47:48;;;;;;;15.23;13.57;;;;;;;7.32;55.31;97968.13;8344687;28;20645;-84
2021/03/10 01:51:51;;;;;;;15.93;14.23;;;;;;;7.23;56.38;97959.78;8344182;28;20699;-83
2021/03/10 01:55:54;;;;;;;16.53;13.80;;;;;;;7.20;56.38;97965.03;8342909;28;20215;-83
2021/03/10 01:59:57;;;;;;;15.93;14.33;;;;;;;7.18;56.03;97959.09;8343332;28;20552;-83
2021/03/10 02:04:02;;;;;;;15.37;13.77;;;;;;;7.16;56.74;97962.56;8342569;28;20204;-83
2021/03/10 02:08:33;;;;;;;16.50;14.80;;;;;;;7.27;56.24;97970.81;8309385;28;20204;-83
2021/03/10 02:12:41;;;;;;;17.47;15.23;;;;;;;7.18;56.39;97965.97;8342077;28;20236;-83
2021/03/10 02:16:47;;;;;;;16.57;14.03;;;;;;;7.19;56.92;97972.78;8342742;28;20212;-83
2021/03/10 02:20:53;;;;;;;16.73;14.90;;;;;;;7.18;56.84;97965.97;8342442;28;20239;-83
2021/03/10 02:25:04;;;;;;;18.17;15.40;;;;;;;7.19;56.45;97958.19;8341704;28;20190;-83
2021/03/10 02:29:08;;;;;;;17.27;15.47;;;;;;;7.18;56.41;97959.09;8341111;28;20185;-83
2021/03/10 02:33:13;;;;;;;16.90;15.20;;;;;;;7.27;56.30;97967.41;8342267;28;20228;-83
2021/03/10 02:37:16;;;;;;;17.33;15.53;;;;;;;7.16;56.90;97965.16;8341854;28;20570;-83
2021/03/10 02:41:19;;;;;;;17.93;16.13;;;;;;;7.09;57.23;97959.34;8341752;28;20211;-83
2021/03/10 02:45:23;;;;;;;17.67;15.87;;;;;;;7.12;57.65;97967.00;8344082;28;20207;-84
2021/03/10 02:49:25;;;;;;;19.37;17.37;;;;;;;7.14;57.76;97970.38;8342693;28;20229;-84
2021/03/10 02:53:27;;;;;;;18.47;16.37;;;;;;;7.11;58.01;97970.44;8341984;28;20606;-84
2021/03/10 02:57:31;;;;;;;19.57;17.47;;;;;;;7.15;57.70;97969.47;8342810;28;20211;-84
2021/03/10 03:01:39;;;;;;;20.73;16.93;;;;;;;7.09;58.28;97973.97;8326719;28;20256;-84
2021/03/10 03:05:41;;;;;;;20.07;17.97;;;;;;;6.89;59.68;97967.66;8343885;28;20200;-83
2021/03/10 03:09:43;;;;;;;20.20;18.10;;;;;;;6.87;60.34;97972.03;8341559;28;20211;-83
2021/03/10 03:13:46;;;;;;;21.13;18.90;;;;;;;7.00;59.91;97970.75;8340419;28;20275;-82
2021/03/10 03:17:50;;;;;;;20.43;18.43;;;;;;;7.15;59.61;97977.19;8340337;28;20672;-82
2021/03/10 03:21:53;;;;;;;20.53;18.10;;;;;;;7.15;59.71;97974.63;8341355;28;20203;-83
2021/03/10 03:25:55;;;;;;;18.43;16.63;;;;;;;7.25;59.20;97975.19;8341257;28;20216;-83
2021/03/10 03:29:59;;;;;;;19.67;17.43;;;;;;;7.10;59.65;97971.38;8342070;28;20561;-83
2021/03/10 03:34:04;;;;;;;19.63;17.53;;;;;;;7.15;59.47;97969.47;8340908;28;20232;-84
2021/03/10 03:38:06;;;;;;;20.87;17.53;;;;;;;7.04;59.53;97969.81;8340799;28;20887;-83
2021/03/10 03:42:09;;;;;;;19.83;17.73;;;;;;;7.07;59.70;97981.75;8343041;28;20201;-82
2021/03/10 03:46:12;;;;;;;19.77;17.77;;;;;;;7.04;59.95;97979.25;8346980;28;20239;-82
2021/03/10 03:50:16;;;;;;;18.80;16.80;;;;;;;7.13;59.86;97989.28;8330791;28;20200;-84
2021/03/10 03:54:18;;;;;;;19.23;17.23;;;;;;;7.05;60.25;97997.22;8356342;28;20224;-82
2021/03/10 03:58:20;;;;;;;19.63;17.63;;;;;;;7.11;60.01;98009.09;8358160;28;20205;-83
2021/03/10 04:02:23;;;;;;;19.93;18.03;;;;;;;7.13;59.93;98007.31;8341134;28;20216;-83
2021/03/10 04:06:26;;;;;;;20.83;18.63;;;;;;;7.06;60.11;98008.38;8358362;28;20207;-82
2021/03/10 04:10:30;;;;;;;20.03;18.03;;;;;;;7.07;60.03;98001.50;8352681;28;20224;-82
2021/03/10 04:14:32;;;;;;;19.83;17.83;;;;;;;7.18;59.91;98005.44;8343370;28;20236;-83
2021/03/10 04:18:36;;;;;;;18.33;16.63;;;;;;;7.20;59.80;98021.69;8347232;28;20220;-83
2021/03/10 04:22:39;;;;;;;20.30;17.63;;;;;;;7.07;60.00;98017.78;8346589;28;20215;-83
2021/03/10 04:26:42;;;;;;;20.47;18.43;;;;;;;6.99;60.44;98015.44;8346485;28;20207;-83
2021/03/10 04:30:44;;;;;;;20.90;18.73;;;;;;;7.09;60.27;98013.44;8346048;28;20200;-83
2021/03/10 04:34:46;;;;;;;21.07;18.93;;;;;;;7.11;60.09;98005.69;8343448;28;20197;-83
2021/03/10 04:38:50;;;;;;;20.20;18.10;;;;;;;7.11;59.90;98014.22;8315122;28;20227;-83
2021/03/10 04:42:52;;;;;;;20.07;18.07;;;;;;;7.11;59.39;98009.09;8313529;28;20201;-83
2021/03/10 04:46:54;;;;;;;19.47;17.57;;;;;;;7.13;59.55;98003.91;8312556;28;20205;-82
2021/03/10 04:50:56;;;;;;;19.67;17.77;;;;;;;7.12;59.35;98015.94;8314209;28;20205;-83
2021/03/10 04:54:59;;;;;;;20.37;18.27;;;;;;;7.14;59.22;98016.72;8347843;28;20695;-83
2021/03/10 04:59:01;;;;;;;20.07;17.97;;;;;;;7.07;59.52;98020.38;8350414;28;20671;-83
2021/03/10 05:03:04;;;;;;;21.10;19.00;;;;;;;7.14;59.44;98031.31;8350045;28;20205;-83
2021/03/10 05:07:07;;;;;;;21.43;19.13;;;;;;;6.98;59.74;98015.47;8348593;28;20604;-83
2021/03/10 05:11:10;;;;;;;21.67;19.47;;;;;;;7.04;59.72;98023.88;8347457;28;20579;-83
2021/03/10 05:15:14;;;;;;;22.53;20.27;;;;;;;6.98;60.00;98013.75;8345976;28;20200;-83
2021/03/10 05:19:16;;;;;;;25.33;20.60;;;;;;;7.03;59.75;98011.88;8345796;28;20208;-83
2021/03/10 05:23:18;;;;;;;22.77;20.47;;;;;;;7.08;59.65;98016.06;8346992;28;20200;-83
2021/03/10 05:27:22;;;;;;;22.87;20.47;;;;;;;7.04;59.77;98025.59;8330296;28;20220;-83
2021/03/10 05:31:24;;;;;;;27.13;22.40;;;;;;;7.00;60.21;98030.00;8323948;28;20236;-83
2021/03/10 05:35:27;;;;;;;25.73;22.30;;;;;;;6.96;60.13;98022.41;8361804;28;20213;-83
2021/03/10 05:39:29;;;;;;;23.70;21.30;;;;;;;6.97;59.98;98027.53;8357675;28;20216;-83
2021/03/10 05:43:33;;;;;;;25.87;23.07;;;;;;;6.96;60.07;98033.53;8339836;28;20676;-84
2021/03/10 05:47:35;;;;;;;26.50;23.73;;;;;;;6.93;60.41;98036.22;8342686;28;20205;-83
2021/03/10 05:51:38;;;;;;;26.00;23.33;;;;;;;7.03;60.23;98036.81;8341752;28;20237;-83
2021/03/10 05:55:40;;;;;;;27.13;23.90;;;;;;;6.84;60.61;98041.63;8341749;28;20196;-83
2021/03/10 05:59:44;;;;;;;26.47;23.67;;;;;;;6.97;60.25;98049.88;8342970;28;20247;-84
2021/03/10 06:03:52;;;;;;;27.57;23.83;;;;;;;7.02;59.98;98046.25;8342094;28;20290;-84
2021/03/10 06:08:01;;;;;;;27.10;23.60;;;;;;;7.05;60.19;98047.91;8341837;28;20203;-84
2021/03/10 06:12:05;;;;;;;26.97;24.07;;;;;;;6.97;60.22;98042.13;8323190;28;20264;-84
2021/03/10 06:16:08;;;;;;;27.07;24.20;;;;;;;7.06;60.23;98044.41;8341579;28;21011;-83
2021/03/10 06:20:21;;;;;;;26.77;23.80;;;;;;;7.12;60.02;98041.69;8321925;28;20641;-84
2021/03/10 06:24:33;;;;;;;28.97;25.87;;;;;;;7.00;59.96;98052.31;8339267;28;20209;-83
2021/03/10 06:28:37;;;;;;;26.87;24.07;;;;;;;7.04;60.72;98053.91;8339694;28;20645;-83
2021/03/10 06:32:42;;;;;;;27.40;24.50;;;;;;;7.10;60.57;98058.06;8322209;28;20699;-84
2021/03/10 06:36:48;;;;;;;28.97;25.30;;;;;;;7.25;60.60;98070.47;8342206;28;20234;-83
2021/03/10 06:40:55;;;;;;;28.47;25.47;;;;;;;7.27;60.15;98067.88;8342067;28;20200;-83
2021/03/10 06:44:57;;;;;;;27.73;24.60;;;;;;;7.30;59.92;98073.78;8324010;28;20235;-83
2021/03/10 06:49:02;;;;;;;28.37;25.37;;;;;;;7.32;59.85;98086.63;8339997;28;20212;-83
2021/03/10 06:53:05;;;;;;;26.23;23.53;;;;;;;7.34;59.90;98087.41;8338641;28;20208;-84
2021/03/10 06:57:08;;;;;;;27.70;24.70;;;;;;;7.29;59.99;98090.13;8342780;28;20200;-84
2021/03/10 07:01:10;;;;;;;28.30;24.70;;;;;;;7.23;60.45;98103.19;8343828;28;20208;-84
2021/03/10 07:05:21;;;;;;;28.83;25.70;;;;;;;7.34;59.93;98106.28;8348397;28;20201;-84
2021/03/10 07:09:23;;;;;;;29.37;26.10;;;;;;;7.29;60.32;98104.72;8340134;28;20193;-83
2021/03/10 07:13:26;;;;;;;30.43;27.33;;;;;;;7.35;60.43;98112.28;8345903;28;20240;-84
2021/03/10 07:17:28;;;;;;;31.60;27.60;;;;;;;7.41;60.19;98114.69;8346139;28;20205;-83
2021/03/10 07:21:37;;;;;;;30.93;27.27;;;;;;;7.26;60.59;98115.97;8345150;28;20656;-83
2021/03/10 07:25:43;;;;;;;30.60;27.30;;;;;;;7.39;60.36;98116.47;8348059;28;20207;-84
2021/03/10 07:29:45;;;;;;;31.37;27.97;;;;;;;7.41;60.43;98119.84;8346166;28;20192;-84
2021/03/10 07:33:53;;;;;;;32.90;28.77;;;;;;;7.32;60.61;98125.25;8328117;28;20228;-82
2021/03/10 07:37:56;;;;;;;33.97;30.27;;;;;;;7.34;60.92;98126.06;8338155;28;20189;-81
2021/03/10 07:42:18;;;;;;;35.40;29.87;;;;;;;7.42;60.55;98131.81;8313340;28;20220;-82
2021/03/10 07:46:21;;;;;;;32.93;29.47;;;;;;;7.59;60.39;98131.34;8313415;28;20212;-82
2021/03/10 07:50:25;;;;;;;32.03;28.57;;;;;;;7.56;60.61;98140.00;8297064;28;20209;-82
2021/03/10 07:54:28;;;;;;;33.93;30.27;;;;;;;7.63;60.15;98138.09;8316197;28;20256;-84
2021/03/10 07:58:32;;;;;;;33.37;29.77;;;;;;;7.73;60.25;98144.69;8343579;28;20200;-82
2021/03/10 08:02:42;;;;;;;34.50;30.70;;;;;;;7.71;60.25;98149.03;8343780;28;20201;-82
2021/03/10 08:06:46;;;;;;;34.87;30.53;;;;;;;7.56;60.70;98152.06;8327965;28;20258;-82
2021/03/10 08:10:49;;;;;;;33.93;30.23;;;;;;;7.70;60.69;98157.66;8345548;28;20259;-82
2021/03/10 08:14:52;;;;;;;34.73;31.00;;;;;;;7.64;61.29;98157.84;8345487;28;20235;-81
2021/03/10 08:18:55;;;;;;;34.97;31.33;;;;;;;7.74;60.43;98163.56;8345091;28;20200;-82
2021/03/10 08:22:58;;;;;;;35.57;31.70;;;;;;;7.94;59.88;98163.81;8344358;28;20262;-84
2021/03/10 08:27:02;;;;;;;35.27;31.47;;;;;;;7.96;59.61;98161.19;8344596;28;20204;-82
2021/03/10 08:31:06;;;;;;;33.63;29.93;;;;;;;8.10;59.47;98168.50;8350361;28;20228;-82
2021/03/10 08:35:10;;;;;;;35.73;32.03;;;;;;;8.13;59.57;98171.81;8347261;28;20267;-82
2021/03/10 08:39:14;;;;;;;33.83;30.27;;;;;;;8.30;59.02;98176.44;8342531;28;20233;-81
2021/03/10 08:43:19;;;;;;;36.97;33.03;;;;;;;8.18;58.88;98164.75;8314193;28;20696;-82
2021/03/10 08:47:23;;;;;;;37.40;32.93;;;;;;;8.26;58.49;98176.59;8340876;28;20527;-82
2021/03/10 08:51:25;;;;;;;35.20;31.50;;;;;;;8.34;58.41;98179.75;8332063;28;20192;-81
2021/03/10 08:55:28;;;;;;;35.00;31.30;;;;;;;8.36;58.15;98163.34;8328916;28;20204;-82
2021/03/10 08:59:37;;;;;;;33.43;20.53;;;;;;;10.53;66.40;98168.44;8342287;28;20232;-82
2021/03/10 09:03:43;;;;;;;33.63;27.13;;;;;;;11.24;55.77;98154.25;8343666;28;20208;-82
2021/03/10 09:07:48;;;;;;;32.43;27.93;;;;;;;11.76;50.33;98161.41;8343919;28;20239;-81
2021/03/10 09:11:51;;;;;;;37.23;33.23;;;;;;;10.29;53.58;98165.06;8344324;28;20239;-80
2021/03/10 09:15:55;;;;;;;34.13;30.63;;;;;;;10.04;53.97;98179.88;8344008;28;20201;-80
2021/03/10 09:19:59;;;;;;;34.57;30.80;;;;;;;9.96;53.16;98173.25;8343838;28;20204;-80
2021/03/10 09:24:02;;;;;;;33.90;30.20;;;;;;;9.82;52.88;98172.91;8341706;28;20200;-83
2021/03/10 09:28:06;;;;;;;32.50;29.30;;;;;;;9.60;52.47;98172.91;8314163;28;20224;-80
2021/03/10 09:32:09;;;;;;;29.53;26.43;;;;;;;9.72;50.88;98175.00;8311051;28;20232;-81
2021/03/10 09:36:11;;;;;;;28.83;25.83;;;;;;;9.70;51.35;98168.22;8312700;28;20228;-83
2021/03/10 09:40:15;;;;;;;29.80;26.70;;;;;;;9.81;51.00;98167.81;8311027;28;20201;-81
2021/03/10 09:44:17;;;;;;;31.30;27.37;;;;;;;9.95;51.13;98179.31;8311629;28;20200;-81
2021/03/10 09:48:30;;;;;;;29.67;26.57;;;;;;;9.83;50.77;98177.19;8319476;28;20216;-81
2021/03/10 09:52:36;;;;;;;30.13;26.87;;;;;;;10.57;49.61;98176.94;8327644;28;20274;-82
2021/03/10 09:56:48;;;;;;;32.07;27.87;;;;;;;10.36;49.99;98176.88;8344564;28;20642;-80
2021/03/10 10:00:59;;;;;;;29.80;26.70;;;;;;;10.41;49.08;98168.91;8345246;28;20192;-81
2021/03/10 10:05:03;;;;;;;28.70;25.67;;;;;;;10.16;48.73;98174.19;8343488;28;20221;-81
2021/03/10 10:09:06;;;;;;;28.27;25.37;;;;;;;10.16;49.66;98176.78;8342311;28;20196;-80
2021/03/10 10:13:08;;;;;;;29.53;24.20;;;;;;;9.78;49.25;98181.69;8343575;28;20281;-80
2021/03/10 10:17:10;;;;;;;28.20;23.83;;;;;;;9.78;49.00;98171.34;8340574;28;20205;-81
2021/03/10 10:21:13;;;;;;;27.37;24.37;;;;;;;9.81;48.90;98166.06;8339758;28;20250;-80
2021/03/10 10:25:16;;;;;;;26.17;23.50;;;;;;;9.53;49.08;98172.25;8341832;28;20200;-80
2021/03/10 10:29:18;;;;;;;27.63;24.37;;;;;;;9.66;49.27;98177.81;8341233;28;20397;-79
2021/03/10 10:33:20;;;;;;;26.20;23.50;;;;;;;9.45;49.01;98161.38;8341340;28;20236;-80
2021/03/10 10:37:23;;;;;;;29.07;25.83;;;;;;;9.15;50.25;98177.06;8332731;28;20205;-81
2021/03/10 10:41:25;;;;;;;27.17;24.47;;;;;;;9.54;49.66;98167.97;8326480;28;20559;-81
2021/03/10 10:45:27;;;;;;;27.90;25.07;;;;;;;9.74;49.05;98170.63;8342528;28;20223;-80
2021/03/10 10:49:29;;;;;;;28.90;24.83;;;;;;;10.06;48.38;98167.72;8342979;28;20299;-81
2021/03/10 10:53:32;;;;;;;26.80;23.97;;;;;;;10.52;47.14;98168.50;8346393;28;20217;-82
2021/03/10 10:57:34;;;;;;;30.27;24.23;;;;;;;10.55;45.85;98156.25;8368835;28;20201;-80
2021/03/10 11:01:40;;;;;;;24.20;21.70;;;;;;;10.65;45.13;98161.91;8345907;28;20628;-82
2021/03/10 11:05:42;;;;;;;22.17;19.83;;;;;;;10.75;44.88;98154.59;8345677;28;20211;-81
2021/03/10 11:09:45;;;;;;;24.27;21.67;;;;;;;10.63;45.74;98161.13;8344059;28;20211;-80
2021/03/10 11:13:47;;;;;;;21.97;19.63;;;;;;;10.62;45.07;98153.41;8344025;28;20304;-80
2021/03/10 11:17:50;;;;;;;22.93;20.43;;;;;;;10.36;45.77;98152.75;8343587;28;20208;-81
2021/03/10 11:21:52;;;;;;;20.00;17.97;;;;;;;10.63;44.76;98155.13;8326821;28;20684;-81
2021/03/10 11:25:55;;;;;;;20.83;18.63;;;;;;;10.70;43.50;98157.38;8344073;28;20204;-82
2021/03/10 11:29:58;;;;;;;16.83;15.13;;;;;;;10.90;41.53;98147.91;8344918;28;20202;-82
2021/03/10 11:34:01;;;;;;;16.03;14.43;;;;;;;11.71;40.34;98133.09;8346951;28;20638;-81
2021/03/10 11:38:03;;;;;;;16.60;14.30;;;;;;;12.12;39.76;98149.34;8347771;28;20204;-82
2021/03/10 11:42:17;;;;;;;13.90;12.60;;;;;;;12.53;38.20;98143.06;8342232;28;20196;-82
2021/03/10 11:46:19;;;;;;;16.10;14.60;;;;;;;11.84;39.47;98141.13;8341651;28;20217;-82
2021/03/10 11:50:21;;;;;;;15.37;13.73;;;;;;;11.69;38.92;98127.13;8343661;28;20211;-82
2021/03/10 11:54:24;;;;;;;16.17;11.47;;;;;;;12.00;47.33;98136.94;8343027;28;20683;-80
2021/03/10 11:58:27;;;;;;;15.95;14.45;;;;;;;12.16;38.38;98137.06;8336649;28;20438;-81
2021/03/10 12:02:29;;;;;;;16.08;14.52;;;;;;;12.56;37.03;98116.91;8338971;28;20494;-81
2021/03/10 12:06:32;;;;;;;14.63;13.23;;;;;;;12.00;37.69;98126.56;8345666;28;20251;-81
2021/03/10 12:10:39;;;;;;;16.10;13.47;;;;;;;12.57;37.36;98123.81;8344838;28;20220;-81
2021/03/10 12:14:43;;;;;;;16.10;14.37;;;;;;;12.23;37.93;98119.44;8344190;28;20243;-81
2021/03/10 12:18:46;;;;;;;16.90;15.20;;;;;;;11.30;39.27;98120.25;8344263;28;20232;-81
2021/03/10 12:22:49;;;;;;;16.27;14.67;;;;;;;11.10;39.57;98111.63;8345338;28;20278;-81
2021/03/10 12:26:50;;;;;;;16.77;15.07;;;;;;;11.03;39.90;98110.19;8344074;28;20621;-81
2021/03/10 12:30:53;;;;;;;15.43;13.93;;;;;;;11.75;38.18;98113.88;8343442;28;20212;-82
2021/03/10 12:34:57;;;;;;;18.13;14.13;;;;;;;12.30;37.37;98103.47;8339774;28;20640;-81
2021/03/10 12:38:59;;;;;;;14.67;13.27;;;;;;;12.27;36.01;98100.19;8344364;28;20953;-81
2021/03/10 12:43:01;;;;;;;14.27;12.83;;;;;;;12.46;36.17;98097.53;8344590;28;20208;-81
2021/03/10 12:47:04;;;;;;;14.23;12.83;;;;;;;11.68;37.50;98105.53;8340197;28;20203;-82
2021/03/10 12:51:06;;;;;;;13.40;12.10;;;;;;;11.46;38.24;98103.09;8342515;28;20208;-81
2021/03/10 12:55:09;;;;;;;13.93;12.53;;;;;;;11.57;38.27;98109.53;8342430;28;20231;-82
2021/03/10 12:59:11;;;;;;;15.00;13.13;;;;;;;11.25;37.69;98104.06;8343208;28;20200;-81
2021/03/10 13:03:14;;;;;;;14.83;12.60;;;;;;;11.22;38.03;98091.25;8344208;28;20203;-80
2021/03/10 13:07:16;;;;;;;14.33;12.93;;;;;;;11.64;38.21;98095.38;8344049;28;20243;-80
2021/03/10 13:11:18;;;;;;;13.97;12.57;;;;;;;12.46;37.00;98077.56;8341691;28;20268;-82
2021/03/10 13:15:20;;;;;;;14.13;12.63;;;;;;;12.00;37.16;98077.25;8337566;28;20255;-81
2021/03/10 13:19:23;;;;;;;14.00;12.70;;;;;;;12.65;36.63;98069.69;8330517;28;20270;-81
2021/03/10 13:23:25;;;;;;;13.53;12.23;;;;;;;13.13;35.93;98062.00;8336926;28;20527;-81
2021/03/10 13:27:27;;;;;;;14.77;13.37;;;;;;;13.05;34.14;98052.03;8332851;28;20204;-81
2021/03/10 13:31:29;;;;;;;13.53;12.23;;;;;;;12.80;36.23;98049.06;8337177;28;20208;-81
2021/03/10 13:35:32;;;;;;;14.63;13.27;;;;;;;12.63;36.41;98055.13;8307393;28;20256;-81
2021/03/10 13:39:35;;;;;;;13.57;12.20;;;;;;;12.59;35.80;98049.22;8322652;28;20224;-82
2021/03/10 13:43:37;;;;;;;14.70;13.10;;;;;;;12.55;34.93;98049.47;8311882;28;20288;-82
2021/03/10 13:47:39;;;;;;;13.87;12.57;;;;;;;13.11;35.56;98059.50;8325445;28;20248;-82
2021/03/10 13:51:43;;;;;;;13.67;12.20;;;;;;;13.00;33.69;98050.59;8327891;28;20193;-82
2021/03/10 13:55:46;;;;;;;13.77;12.57;;;;;;;13.18;34.88;98054.81;8344889;28;20236;-82
2021/03/10 13:59:48;;;;;;;12.97;11.67;;;;;;;13.67;33.84;98049.56;8364337;28;20287;-82
2021/03/10 14:03:51;;;;;;;14.27;12.87;;;;;;;13.47;34.49;98044.63;8348659;28;20232;-81
2021/03/10 14:07:54;;;;;;;13.57;12.27;;;;;;;14.01;33.83;98042.47;8365379;28;20217;-81
2021/03/10 14:11:56;;;;;;;13.43;12.07;;;;;;;14.11;33.30;98045.41;8343559;28;20340;-82
2021/03/10 14:15:58;;;;;;;12.40;11.30;;;;;;;13.53;33.82;98041.69;8341239;28;20232;-82
2021/03/10 14:20:00;;;;;;;13.20;11.90;;;;;;;13.16;34.47;98046.25;8317114;28;20226;-82
2021/03/10 14:24:04;;;;;;;14.20;12.80;;;;;;;12.82;34.75;98048.03;8319666;28;20227;-82
2021/03/10 14:28:07;;;;;;;14.77;13.33;;;;;;;12.58;36.23;98050.13;8337400;28;20566;-82
2021/03/10 14:32:10;;;;;;;15.23;13.73;;;;;;;12.48;36.01;98041.16;8312751;28;20243;-82
2021/03/10 14:36:12;;;;;;;14.57;13.10;;;;;;;12.53;35.75;98046.94;8307143;28;20205;-82
2021/03/10 14:40:17;;;;;;;14.37;13.07;;;;;;;12.61;35.53;98038.78;8308285;28;20231;-82
2021/03/10 14:44:24;;;;;;;14.60;12.97;;;;;;;12.29;36.55;98028.25;8339609;28;20644;-82
2021/03/10 14:48:27;;;;;;;13.80;12.40;;;;;;;12.05;37.30;98025.97;8338875;28;20204;-82
2021/03/10 14:52:29;;;;;;;14.17;12.70;;;;;;;12.04;36.91;98029.47;8338421;28;20236;-82
2021/03/10 14:56:32;;;;;;;13.33;12.03;;;;;;;11.99;36.85;98031.44;8321334;28;20216;-82
2021/03/10 15:00:35;;;;;;;12.23;11.13;;;;;;;11.87;36.94;98038.03;8338906;28;20212;-82
2021/03/10 15:04:37;;;;;;;13.17;11.90;;;;;;;11.59;37.02;98037.69;8306234;28;20231;-82
2021/03/10 15:08:39;;;;;;;12.87;11.53;;;;;;;11.62;37.32;98045.34;8288492;28;20212;-82
2021/03/10 15:12:43;;;;;;;15.37;13.73;;;;;;;11.49;37.18;98042.47;8305766;28;20232;-82
2021/03/10 15:16:46;;;;;;;13.83;12.43;;;;;;;11.49;38.18;98042.47;8307660;28;20205;-82
2021/03/10 15:20:48;;;;;;;13.50;12.10;;;;;;;11.67;36.82;98033.81;8306395;28;20221;-82
2021/03/10 15:24:51;;;;;;;11.77;10.67;;;;;;;11.62;36.58;98024.59;8306414;28;20205;-82
2021/03/10 15:28:54;;;;;;;11.20;10.20;;;;;;;11.54;37.42;98019.75;8307496;28;20212;-82
2021/03/10 15:32:56;;;;;;;11.90;10.70;;;;;;;11.32;37.28;98009.53;8325528;28;20271;-82
2021/03/10 15:36:58;;;;;;;10.60;9.60;;;;;;;11.41;37.52;98013.47;8324338;28;20212;-82
2021/03/10 15:41:01;;;;;;;10.33;9.30;;;;;;;11.15;37.35;98008.56;8345983;28;20228;-82
2021/03/10 15:45:06;;;;;;;12.07;9.40;;;;;;;11.30;37.16;98009.59;8348779;28;20196;-82
2021/03/10 15:49:08;;;;;;;10.87;9.87;;;;;;;11.28;37.25;97997.63;8351184;28;20265;-82
2021/03/10 15:53:11;;;;;;;13.87;11.83;;;;;;;11.13;37.35;98001.78;8357176;28;20228;-83
2021/03/10 15:57:13;;;;;;;11.50;10.40;;;;;;;11.23;37.50;97997.88;8343201;28;20542;-82
2021/03/10 16:01:16;;;;;;;11.67;10.50;;;;;;;11.21;37.62;97986.69;8311560;28;20223;-82
2021/03/10 16:05:19;;;;;;;10.97;9.83;;;;;;;11.20;37.65;97987.63;8311876;28;20283;-82
2021/03/10 16:09:21;;;;;;;12.37;11.17;;;;;;;11.14;37.73;97986.16;8294166;28;20295;-82
2021/03/10 16:13:24;;;;;;;11.83;10.70;;;;;;;11.02;37.81;97981.53;8327524;28;20240;-82
2021/03/10 16:17:27;;;;;;;12.27;11.07;;;;;;;11.03;38.03;97980.63;8344402;28;20193;-81
2021/03/10 16:35:19;;;;;;;11.97;10.63;;;;;;;10.80;38.65;97973.91;8358312;22;20236;-62
2021/03/10 16:39:21;;;;;;;11.90;10.70;;;;;;;10.80;38.92;97968.72;8334524;28;20212;-61
2021/03/10 16:43:23;;;;;;;14.17;12.43;;;;;;;10.72;39.69;97963.06;8334202;28;20672;-57
2021/03/10 16:47:25;;;;;;;11.50;10.30;;;;;;;10.66;39.31;97969.34;8335621;28;20303;-57
2021/03/10 16:51:28;;;;;;;13.60;10.80;;;;;;;10.64;38.97;97965.13;8334340;28;20390;-58
2021/03/10 16:55:30;;;;;;;15.87;10.97;;;;;;;10.52;39.82;97962.19;8334970;28;20675;-57
2021/03/10 16:59:32;;;;;;;13.30;11.90;;;;;;;10.47;39.54;97963.28;8335407;28;20267;-59
2021/03/10 17:03:35;;;;;;;13.67;12.20;;;;;;;10.42;40.29;97957.50;8333798;28;20212;-58
2021/03/10 17:07:38;;;;;;;15.87;12.80;;;;;;;10.37;40.20;97957.66;8333691;28;20205;-57
2021/03/10 17:11:40;;;;;;;15.43;13.77;;;;;;;10.25;40.52;97964.19;8333863;28;20231;-57
2021/03/10 17:15:41;;;;;;;15.73;12.83;;;;;;;10.13;41.33;97962.97;8334757;28;20643;-57
2021/03/10 17:19:46;;;;;;;16.33;14.63;;;;;;;10.14;42.04;97969.00;8333300;28;20212;-58
2021/03/10 17:23:49;;;;;;;22.93;17.83;;;;;;;10.17;42.42;97971.47;8333306;28;20270;-56
2021/03/10 17:27:51;;;;;;;20.43;18.30;;;;;;;10.05;42.07;97979.72;8333867;28;20270;-57
2021/03/10 17:31:53;;;;;;;19.20;16.17;;;;;;;9.92;41.69;97976.81;8333417;28;20244;-57
2021/03/10 17:35:55;;;;;;;18.63;16.73;;;;;;;9.91;42.84;97978.56;8333967;28;20278;-57
2021/03/10 17:39:58;;;;;;;27.07;20.03;;;;;;;9.84;42.69;97979.69;8333800;28;20566;-57
2021/03/10 17:43:59;;;;;;;28.03;20.37;;;;;;;9.78;42.73;97979.97;8334391;28;20235;-57
2021/03/10 17:48:01;;;;;;;30.53;21.40;;;;;;;9.72;42.50;97981.06;8334532;28;20212;-58
2021/03/10 17:52:04;;;;;;;22.60;18.77;;;;;;;9.74;43.13;97981.81;8333469;28;20211;-58
2021/03/10 17:56:07;;;;;;;25.90;22.10;;;;;;;9.56;43.34;97980.00;8332954;28;20267;-57
2021/03/10 18:00:10;;;;;;;23.80;20.20;;;;;;;9.60;43.53;97973.81;8331436;28;20204;-57
2021/03/10 18:04:12;;;;;;;21.57;19.23;;;;;;;9.54;43.80;97982.66;8332851;28;20215;-58
2021/03/10 18:08:14;;;;;;;22.70;19.23;;;;;;;9.48;44.51;97972.56;8333889;28;20204;-58
2021/03/10 18:12:16;;;;;;;21.93;19.60;;;;;;;9.45;44.71;97977.84;8332279;28;20235;-62
2021/03/10 18:16:19;;;;;;;21.80;19.50;;;;;;;9.42;43.87;97977.09;8331210;28;20315;-62
2021/03/10 18:20:36;;;;;;;22.43;19.70;;;;;;;9.36;44.14;97976.44;8331387;28;20300;-62
2021/03/10 18:24:40;;;;;;;24.83;20.53;;;;;;;9.26;44.54;97979.47;8331125;28;20303;-61
2021/03/10 18:28:43;;;;;;;23.60;20.00;;;;;;;9.22;44.17;97971.00;8329061;28;20204;-61
2021/03/10 18:32:45;;;;;;;25.67;19.00;;;;;;;8.93;44.81;97967.78;8330548;28;20204;-61
2021/03/10 18:36:48;;;;;;;21.63;17.93;;;;;;;9.16;44.81;97964.31;8332710;28;20235;-61
2021/03/10 18:40:50;;;;;;;20.60;17.90;;;;;;;9.16;44.16;97963.47;8331868;28;20220;-61
2021/03/10 18:44:53;;;;;;;24.50;19.97;;;;;;;9.17;44.20;97955.66;8329109;28;20204;-61
2021/03/10 18:48:57;;;;;;;22.60;19.30;;;;;;;9.21;44.60;97956.38;8330251;28;20236;-61
2021/03/10 18:52:59;;;;;;;31.20;25.27;;;;;;;9.13;44.41;97948.91;8331039;28;20331;-61
2021/03/10 18:57:01;;;;;;;28.93;24.20;;;;;;;9.13;44.60;97945.50;8329526;28;20208;-62
2021/03/10 19:01:04;;;;;;;34.63;26.13;;;;;;;8.97;44.94;97940.94;8329386;28;20215;-68